KPHD/PHD METAR and TAF weather

Enter ICAO airport designator
Station Type Date Time Source
KPHD METAR 2019/02/16 16:53 UTC NOAA

KPHD 161653Z AUTO 00000KT 10SM OVC021 M03/M08 A3007 RMK AO2 SLP192 T10331083


Station Type Date Time Source
KPHD Decoded METAR 2019/02/16 16:53 UTC NOAA

NEW PHILADELPHIA CLEVER FLD, OH, United States (KPHD) 40-28N 81-25W 272M
Feb 16, 2019 - 11:53 AM EST / 2019.02.16 1653 UTC
Wind: Calm:0
Visibility: 10 mile(s):0
Sky conditions: overcast
Temperature: 26.1 F (-3.3 C)
Dew Point: 17.1 F (-8.3 C)
Relative Humidity: 68%
Pressure (altimeter): 30.07 in. Hg (1018 hPa)
ob: KPHD 161653Z AUTO 00000KT 10SM OVC021 M03/M08 A3007 RMK AO2 SLP192 T10331083
cycle: 17

Station Type Date Time Source
KPHD TAF UTC NOAA

Error!


Example: see airport list